KAVX

Catalina Airport

Avalon, California, USA
METAR KAVX 242351Z AUTO 24007KT 10SM CLR 21/M03 A3002 RMK AO2 SLP146 T02061028 10217 20156 56008 $
Observed Flight Rules
Apr-24 @ 23:51 UTC (51 minutes ago) Visual Flight Rules
Wind Visibility Clouds
240° at 7 knots 10 miles
  • Clear skies
Temperatures Readings
Current 21°C / 70°F
Dewpoint -3°C / 27°F
Humidity 20%
Altimeter 30.02" Hg
Pressure 1014.6 hPa
Elevation 482
METAR KAVX 242351Z AUTO 24007KT 10SM CLR 21/M03 A3002 RMK AO2 SLP146 T02061028 10217 20156 56008 $
Observed Flight Rules
Apr-24 @ 23:51 UTC
(51 minutes ago)
VFR
Wind Visibility
240° at 7 knots 10 miles
Clouds
  • Clear skies
Temperature Dewpoint
21°C / 70°F -3°C / 27°F
Humidity Altimeter Pressure
20% 30.02" Hg 1014.6 hPa